Aviation Digital Data Service (ADDS)

Output produced by METARs form (2131 UTC 24 May 2017)
found at http://aviationweather.gov/adds/metars/
 
KPHL 242037Z 2421/2524 10010KT P6SM FEW040 OVC060 
     FM250200 10008KT P6SM BKN020 OVC060 
     FM250600 07013G22KT 3SM SHRA BKN008 OVC012 
     FM251300 08012G21KT 5SM BR VCSH OVC005 
     FM251600 13009KT P6SM SCT007 OVC012 
     FM252100 14007KT 6SM -SHRA BKN015